sensor_id;sensor_type;location;lat;lon;timestamp;P1;durP1;ratioP1;P2;durP2;ratioP2
18623;SDS011;9441;51.420;7.036;2022-12-18T00:00:08;13.00;;;5.30;;
18623;SDS011;9441;51.420;7.036;2022-12-18T00:01:15;12.68;;;5.18;;
18623;SDS011;9441;51.420;7.036;2022-12-18T00:02:18;11.25;;;5.13;;
18623;SDS011;9441;51.420;7.036;2022-12-18T00:03:22;9.77;;;5.25;;
18623;SDS011;9441;51.420;7.036;2022-12-18T00:04:23;11.38;;;5.40;;
18623;SDS011;9441;51.420;7.036;2022-12-18T00:05:26;10.57;;;5.07;;
18623;SDS011;9441;51.420;7.036;2022-12-18T00:06:28;10.82;;;5.10;;
18623;SDS011;9441;51.420;7.036;2022-12-18T00:07:30;13.50;;;4.80;;
18623;SDS011;9441;51.420;7.036;2022-12-18T00:08:31;10.93;;;5.10;;
18623;SDS011;9441;51.420;7.036;2022-12-18T00:09:33;10.90;;;5.30;;
18623;SDS011;9441;51.420;7.036;2022-12-18T00:10:36;14.27;;;5.47;;
18623;SDS011;9441;51.420;7.036;2022-12-18T00:11:38;10.05;;;5.40;;
18623;SDS011;9441;51.420;7.036;2022-12-18T00:12:39;11.82;;;5.25;;
18623;SDS011;9441;51.420;7.036;2022-12-18T00:13:41;12.52;;;5.55;;
18623;SDS011;9441;51.420;7.036;2022-12-18T00:14:42;10.63;;;5.53;;
18623;SDS011;9441;51.420;7.036;2022-12-18T00:15:44;12.50;;;5.55;;
18623;SDS011;9441;51.420;7.036;2022-12-18T00:16:46;10.98;;;5.03;;
18623;SDS011;9441;51.420;7.036;2022-12-18T00:17:48;9.75;;;5.50;;
18623;SDS011;9441;51.420;7.036;2022-12-18T00:18:49;9.60;;;5.20;;
18623;SDS011;9441;51.420;7.036;2022-12-18T00:19:53;11.57;;;5.10;;
18623;SDS011;9441;51.420;7.036;2022-12-18T00:20:57;11.10;;;5.63;;
18623;SDS011;9441;51.420;7.036;2022-12-18T00:21:59;15.35;;;5.20;;
18623;SDS011;9441;51.420;7.036;2022-12-18T00:23:01;12.98;;;5.28;;
18623;SDS011;9441;51.420;7.036;2022-12-18T00:24:02;11.95;;;5.30;;
18623;SDS011;9441;51.420;7.036;2022-12-18T00:25:04;11.35;;;5.10;;
18623;SDS011;9441;51.420;7.036;2022-12-18T00:26:09;11.88;;;5.32;;
18623;SDS011;9441;51.420;7.036;2022-12-18T00:27:16;11.48;;;5.55;;
18623;SDS011;9441;51.420;7.036;2022-12-18T00:28:17;12.95;;;5.50;;
18623;SDS011;9441;51.420;7.036;2022-12-18T00:29:20;11.00;;;5.47;;
18623;SDS011;9441;51.420;7.036;2022-12-18T00:30:22;13.30;;;5.65;;
18623;SDS011;9441;51.420;7.036;2022-12-18T00:31:24;13.50;;;5.75;;
18623;SDS011;9441;51.420;7.036;2022-12-18T00:32:27;11.43;;;5.75;;
18623;SDS011;9441;51.420;7.036;2022-12-18T00:33:29;11.55;;;5.40;;
18623;SDS011;9441;51.420;7.036;2022-12-18T00:34:30;12.50;;;5.57;;
18623;SDS011;9441;51.420;7.036;2022-12-18T00:35:32;11.02;;;5.40;;
18623;SDS011;9441;51.420;7.036;2022-12-18T00:36:33;9.30;;;4.97;;
18623;SDS011;9441;51.420;7.036;2022-12-18T00:37:35;10.52;;;5.50;;
18623;SDS011;9441;51.420;7.036;2022-12-18T00:38:37;9.43;;;5.32;;
18623;SDS011;9441;51.420;7.036;2022-12-18T00:39:40;11.90;;;5.28;;
18623;SDS011;9441;51.420;7.036;2022-12-18T00:40:41;10.48;;;5.30;;
18623;SDS011;9441;51.420;7.036;2022-12-18T00:41:44;10.23;;;4.93;;
18623;SDS011;9441;51.420;7.036;2022-12-18T00:43:05;11.65;;;5.07;;
18623;SDS011;9441;51.420;7.036;2022-12-18T00:44:09;14.20;;;5.63;;
18623;SDS011;9441;51.420;7.036;2022-12-18T00:45:13;10.98;;;5.35;;
18623;SDS011;9441;51.420;7.036;2022-12-18T00:46:14;10.98;;;5.32;;
18623;SDS011;9441;51.420;7.036;2022-12-18T00:47:16;11.75;;;5.25;;
18623;SDS011;9441;51.420;7.036;2022-12-18T00:48:17;11.82;;;5.00;;
18623;SDS011;9441;51.420;7.036;2022-12-18T00:49:19;13.75;;;6.20;;
18623;SDS011;9441;51.420;7.036;2022-12-18T00:50:20;12.75;;;5.63;;
18623;SDS011;9441;51.420;7.036;2022-12-18T00:51:23;9.90;;;5.50;;
18623;SDS011;9441;51.420;7.036;2022-12-18T00:52:25;11.88;;;5.45;;
18623;SDS011;9441;51.420;7.036;2022-12-18T00:53:27;10.38;;;4.78;;
18623;SDS011;9441;51.420;7.036;2022-12-18T00:54:30;12.27;;;5.47;;
18623;SDS011;9441;51.420;7.036;2022-12-18T00:55:32;13.35;;;5.82;;
18623;SDS011;9441;51.420;7.036;2022-12-18T00:56:34;10.95;;;5.35;;
18623;SDS011;9441;51.420;7.036;2022-12-18T00:57:38;11.23;;;5.75;;
18623;SDS011;9441;51.420;7.036;2022-12-18T00:58:39;13.18;;;5.43;;
18623;SDS011;9441;51.420;7.036;2022-12-18T00:59:41;12.13;;;5.32;;
18623;SDS011;9441;51.420;7.036;2022-12-18T01:00:43;14.27;;;5.53;;
18623;SDS011;9441;51.420;7.036;2022-12-18T01:01:45;12.10;;;5.22;;
18623;SDS011;9441;51.420;7.036;2022-12-18T01:02:46;11.68;;;5.50;;
18623;SDS011;9441;51.420;7.036;2022-12-18T01:03:48;12.82;;;5.70;;
18623;SDS011;9441;51.420;7.036;2022-12-18T01:04:50;12.38;;;5.40;;
18623;SDS011;9441;51.420;7.036;2022-12-18T01:05:53;12.32;;;5.28;;
18623;SDS011;9441;51.420;7.036;2022-12-18T01:06:54;11.40;;;5.90;;
18623;SDS011;9441;51.420;7.036;2022-12-18T01:07:57;14.02;;;5.75;;
18623;SDS011;9441;51.420;7.036;2022-12-18T01:08:58;13.07;;;5.57;;
18623;SDS011;9441;51.420;7.036;2022-12-18T01:10:00;12.85;;;5.40;;
18623;SDS011;9441;51.420;7.036;2022-12-18T01:11:06;12.52;;;5.93;;
18623;SDS011;9441;51.420;7.036;2022-12-18T01:12:08;14.13;;;5.90;;
18623;SDS011;9441;51.420;7.036;2022-12-18T01:13:11;10.63;;;5.43;;
18623;SDS011;9441;51.420;7.036;2022-12-18T01:14:13;13.82;;;5.80;;
18623;SDS011;9441;51.420;7.036;2022-12-18T01:15:14;10.88;;;5.90;;
18623;SDS011;9441;51.420;7.036;2022-12-18T01:16:17;14.15;;;5.38;;
18623;SDS011;9441;51.420;7.036;2022-12-18T01:17:18;10.60;;;5.60;;
18623;SDS011;9441;51.420;7.036;2022-12-18T01:18:20;11.73;;;5.82;;
18623;SDS011;9441;51.420;7.036;2022-12-18T01:19:21;11.80;;;5.90;;
18623;SDS011;9441;51.420;7.036;2022-12-18T01:20:24;11.45;;;5.50;;
18623;SDS011;9441;51.420;7.036;2022-12-18T01:21:25;10.90;;;5.70;;
18623;SDS011;9441;51.420;7.036;2022-12-18T01:22:27;13.73;;;5.88;;
18623;SDS011;9441;51.420;7.036;2022-12-18T01:23:28;10.77;;;5.65;;
18623;SDS011;9441;51.420;7.036;2022-12-18T01:24:30;15.23;;;6.15;;
18623;SDS011;9441;51.420;7.036;2022-12-18T01:25:31;13.88;;;6.10;;
18623;SDS011;9441;51.420;7.036;2022-12-18T01:26:33;12.18;;;5.68;;
18623;SDS011;9441;51.420;7.036;2022-12-18T01:27:34;12.50;;;5.87;;
18623;SDS011;9441;51.420;7.036;2022-12-18T01:28:39;19.13;;;6.57;;
18623;SDS011;9441;51.420;7.036;2022-12-18T01:29:40;12.35;;;5.85;;
18623;SDS011;9441;51.420;7.036;2022-12-18T01:30:42;11.77;;;5.53;;
18623;SDS011;9441;51.420;7.036;2022-12-18T01:31:44;12.07;;;5.85;;
18623;SDS011;9441;51.420;7.036;2022-12-18T01:32:46;14.02;;;6.00;;
18623;SDS011;9441;51.420;7.036;2022-12-18T01:33:47;11.77;;;5.13;;
18623;SDS011;9441;51.420;7.036;2022-12-18T01:34:49;11.45;;;5.85;;
18623;SDS011;9441;51.420;7.036;2022-12-18T01:35:50;14.50;;;5.70;;
18623;SDS011;9441;51.420;7.036;2022-12-18T01:36:52;12.23;;;5.15;;
18623;SDS011;9441;51.420;7.036;2022-12-18T01:37:53;13.07;;;5.70;;
18623;SDS011;9441;51.420;7.036;2022-12-18T01:38:55;13.65;;;5.63;;
18623;SDS011;9441;51.420;7.036;2022-12-18T01:39:57;12.18;;;5.88;;
18623;SDS011;9441;51.420;7.036;2022-12-18T01:40:59;10.23;;;5.38;;
18623;SDS011;9441;51.420;7.036;2022-12-18T01:42:02;14.45;;;5.57;;
18623;SDS011;9441;51.420;7.036;2022-12-18T01:43:07;9.75;;;5.40;;
18623;SDS011;9441;51.420;7.036;2022-12-18T01:45:46;11.52;;;5.10;;
18623;SDS011;9441;51.420;7.036;2022-12-18T01:46:47;10.20;;;5.50;;
18623;SDS011;9441;51.420;7.036;2022-12-18T01:47:49;13.10;;;5.10;;
18623;SDS011;9441;51.420;7.036;2022-12-18T01:48:53;11.57;;;5.38;;
18623;SDS011;9441;51.420;7.036;2022-12-18T01:49:59;11.55;;;5.05;;
18623;SDS011;9441;51.420;7.036;2022-12-18T01:51:03;14.55;;;5.00;;
18623;SDS011;9441;51.420;7.036;2022-12-18T01:52:07;10.45;;;5.35;;
18623;SDS011;9441;51.420;7.036;2022-12-18T01:53:09;13.88;;;5.32;;
18623;SDS011;9441;51.420;7.036;2022-12-18T01:54:14;11.10;;;5.50;;
18623;SDS011;9441;51.420;7.036;2022-12-18T01:55:16;10.52;;;5.20;;
18623;SDS011;9441;51.420;7.036;2022-12-18T01:56:20;10.68;;;5.63;;
18623;SDS011;9441;51.420;7.036;2022-12-18T01:57:23;14.95;;;5.38;;
18623;SDS011;9441;51.420;7.036;2022-12-18T01:58:27;13.23;;;5.60;;
18623;SDS011;9441;51.420;7.036;2022-12-18T01:59:34;11.05;;;5.30;;
18623;SDS011;9441;51.420;7.036;2022-12-18T02:00:38;12.45;;;5.40;;
18623;SDS011;9441;51.420;7.036;2022-12-18T02:01:40;10.38;;;5.47;;
18623;SDS011;9441;51.420;7.036;2022-12-18T02:02:43;13.38;;;5.63;;
18623;SDS011;9441;51.420;7.036;2022-12-18T02:03:46;13.23;;;5.70;;
18623;SDS011;9441;51.420;7.036;2022-12-18T02:04:49;9.48;;;5.25;;
18623;SDS011;9441;51.420;7.036;2022-12-18T02:05:52;12.38;;;5.70;;
18623;SDS011;9441;51.420;7.036;2022-12-18T02:07:03;12.15;;;5.22;;
18623;SDS011;9441;51.420;7.036;2022-12-18T02:08:10;12.23;;;5.60;;
18623;SDS011;9441;51.420;7.036;2022-12-18T02:09:18;10.48;;;5.13;;
18623;SDS011;9441;51.420;7.036;2022-12-18T02:10:27;11.65;;;5.28;;
18623;SDS011;9441;51.420;7.036;2022-12-18T02:11:39;13.63;;;5.82;;
18623;SDS011;9441;51.420;7.036;2022-12-18T02:12:51;12.13;;;5.22;;
18623;SDS011;9441;51.420;7.036;2022-12-18T02:14:00;14.60;;;5.88;;
18623;SDS011;9441;51.420;7.036;2022-12-18T02:15:09;11.00;;;5.57;;
18623;SDS011;9441;51.420;7.036;2022-12-18T02:16:18;11.18;;;5.32;;
18623;SDS011;9441;51.420;7.036;2022-12-18T02:17:28;11.57;;;5.43;;
18623;SDS011;9441;51.420;7.036;2022-12-18T02:18:38;13.70;;;6.00;;
18623;SDS011;9441;51.420;7.036;2022-12-18T02:19:47;12.77;;;5.40;;
18623;SDS011;9441;51.420;7.036;2022-12-18T02:21:07;10.82;;;5.53;;
18623;SDS011;9441;51.420;7.036;2022-12-18T02:22:23;11.90;;;5.47;;
18623;SDS011;9441;51.420;7.036;2022-12-18T02:23:35;13.60;;;6.07;;
18623;SDS011;9441;51.420;7.036;2022-12-18T02:24:49;13.38;;;5.97;;
18623;SDS011;9441;51.420;7.036;2022-12-18T02:26:07;11.25;;;5.68;;
18623;SDS011;9441;51.420;7.036;2022-12-18T02:27:17;13.20;;;5.60;;
18623;SDS011;9441;51.420;7.036;2022-12-18T02:28:20;12.95;;;6.35;;
18623;SDS011;9441;51.420;7.036;2022-12-18T02:29:28;11.85;;;5.45;;
18623;SDS011;9441;51.420;7.036;2022-12-18T02:30:35;11.00;;;5.65;;
18623;SDS011;9441;51.420;7.036;2022-12-18T02:31:38;9.48;;;5.65;;
18623;SDS011;9441;51.420;7.036;2022-12-18T02:32:45;13.75;;;5.57;;
18623;SDS011;9441;51.420;7.036;2022-12-18T02:33:50;11.23;;;5.50;;
18623;SDS011;9441;51.420;7.036;2022-12-18T02:34:57;9.93;;;5.38;;
18623;SDS011;9441;51.420;7.036;2022-12-18T02:36:02;11.93;;;6.43;;
18623;SDS011;9441;51.420;7.036;2022-12-18T02:37:07;12.13;;;5.68;;
18623;SDS011;9441;51.420;7.036;2022-12-18T02:38:11;10.93;;;5.72;;
18623;SDS011;9441;51.420;7.036;2022-12-18T02:39:18;10.98;;;5.88;;
18623;SDS011;9441;51.420;7.036;2022-12-18T02:40:31;13.32;;;5.95;;
18623;SDS011;9441;51.420;7.036;2022-12-18T02:41:35;10.57;;;5.97;;
18623;SDS011;9441;51.420;7.036;2022-12-18T02:42:38;10.82;;;5.68;;
18623;SDS011;9441;51.420;7.036;2022-12-18T02:43:45;15.05;;;5.85;;
18623;SDS011;9441;51.420;7.036;2022-12-18T02:44:51;12.40;;;5.78;;
18623;SDS011;9441;51.420;7.036;2022-12-18T02:45:59;11.57;;;5.60;;
18623;SDS011;9441;51.420;7.036;2022-12-18T02:47:04;11.95;;;5.38;;
18623;SDS011;9441;51.420;7.036;2022-12-18T02:48:07;12.35;;;6.10;;
18623;SDS011;9441;51.420;7.036;2022-12-18T02:50:35;11.98;;;5.80;;
18623;SDS011;9441;51.420;7.036;2022-12-18T02:51:46;10.90;;;5.75;;
18623;SDS011;9441;51.420;7.036;2022-12-18T02:52:56;12.23;;;5.50;;
18623;SDS011;9441;51.420;7.036;2022-12-18T02:54:06;11.80;;;5.65;;
18623;SDS011;9441;51.420;7.036;2022-12-18T02:55:15;11.35;;;6.00;;
18623;SDS011;9441;51.420;7.036;2022-12-18T02:56:30;12.10;;;5.75;;
18623;SDS011;9441;51.420;7.036;2022-12-18T02:57:40;13.13;;;5.82;;
18623;SDS011;9441;51.420;7.036;2022-12-18T02:58:46;12.18;;;5.97;;
18623;SDS011;9441;51.420;7.036;2022-12-18T03:00:06;12.75;;;5.63;;
18623;SDS011;9441;51.420;7.036;2022-12-18T03:01:12;12.25;;;6.03;;
18623;SDS011;9441;51.420;7.036;2022-12-18T03:02:19;11.35;;;5.85;;
18623;SDS011;9441;51.420;7.036;2022-12-18T03:03:26;11.55;;;6.07;;
18623;SDS011;9441;51.420;7.036;2022-12-18T03:04:36;11.82;;;5.60;;
18623;SDS011;9441;51.420;7.036;2022-12-18T03:05:43;13.85;;;5.82;;
18623;SDS011;9441;51.420;7.036;2022-12-18T03:06:53;13.25;;;6.28;;
18623;SDS011;9441;51.420;7.036;2022-12-18T03:07:59;13.55;;;6.28;;
18623;SDS011;9441;51.420;7.036;2022-12-18T03:09:10;14.63;;;6.20;;
18623;SDS011;9441;51.420;7.036;2022-12-18T03:10:16;10.73;;;5.53;;
18623;SDS011;9441;51.420;7.036;2022-12-18T03:11:23;13.48;;;6.00;;
18623;SDS011;9441;51.420;7.036;2022-12-18T03:12:44;10.57;;;5.68;;
18623;SDS011;9441;51.420;7.036;2022-12-18T03:13:50;12.07;;;6.03;;
18623;SDS011;9441;51.420;7.036;2022-12-18T03:14:58;11.70;;;5.95;;
18623;SDS011;9441;51.420;7.036;2022-12-18T03:16:05;12.60;;;6.00;;
18623;SDS011;9441;51.420;7.036;2022-12-18T03:17:09;12.35;;;6.22;;
18623;SDS011;9441;51.420;7.036;2022-12-18T03:18:15;15.02;;;6.70;;
18623;SDS011;9441;51.420;7.036;2022-12-18T03:19:21;11.93;;;5.80;;
18623;SDS011;9441;51.420;7.036;2022-12-18T03:20:26;13.02;;;6.47;;
18623;SDS011;9441;51.420;7.036;2022-12-18T03:21:32;12.13;;;5.63;;
18623;SDS011;9441;51.420;7.036;2022-12-18T03:22:37;13.82;;;6.13;;
18623;SDS011;9441;51.420;7.036;2022-12-18T03:23:46;12.10;;;6.15;;
18623;SDS011;9441;51.420;7.036;2022-12-18T03:24:50;15.30;;;6.30;;
18623;SDS011;9441;51.420;7.036;2022-12-18T03:25:56;11.48;;;5.40;;
18623;SDS011;9441;51.420;7.036;2022-12-18T03:27:01;12.25;;;6.28;;
18623;SDS011;9441;51.420;7.036;2022-12-18T03:28:09;15.32;;;6.10;;
18623;SDS011;9441;51.420;7.036;2022-12-18T03:29:16;13.95;;;6.53;;
18623;SDS011;9441;51.420;7.036;2022-12-18T03:30:22;12.05;;;5.80;;
18623;SDS011;9441;51.420;7.036;2022-12-18T03:31:24;11.18;;;5.97;;
18623;SDS011;9441;51.420;7.036;2022-12-18T03:32:28;11.73;;;5.95;;
18623;SDS011;9441;51.420;7.036;2022-12-18T03:33:34;10.02;;;6.10;;
18623;SDS011;9441;51.420;7.036;2022-12-18T03:34:40;12.35;;;5.60;;
18623;SDS011;9441;51.420;7.036;2022-12-18T03:35:46;13.20;;;5.25;;
18623;SDS011;9441;51.420;7.036;2022-12-18T03:36:48;9.02;;;5.55;;
18623;SDS011;9441;51.420;7.036;2022-12-18T03:37:50;10.15;;;5.80;;
18623;SDS011;9441;51.420;7.036;2022-12-18T03:38:51;14.93;;;6.57;;
18623;SDS011;9441;51.420;7.036;2022-12-18T03:39:55;13.20;;;5.82;;
18623;SDS011;9441;51.420;7.036;2022-12-18T03:40:58;10.15;;;5.40;;
18623;SDS011;9441;51.420;7.036;2022-12-18T03:42:17;13.00;;;6.07;;
18623;SDS011;9441;51.420;7.036;2022-12-18T03:43:34;10.15;;;5.28;;
18623;SDS011;9441;51.420;7.036;2022-12-18T03:44:46;13.38;;;5.85;;
18623;SDS011;9441;51.420;7.036;2022-12-18T03:45:54;11.15;;;5.80;;
18623;SDS011;9441;51.420;7.036;2022-12-18T03:47:05;10.98;;;5.63;;
18623;SDS011;9441;51.420;7.036;2022-12-18T03:48:13;10.52;;;5.28;;
18623;SDS011;9441;51.420;7.036;2022-12-18T03:49:23;9.73;;;5.38;;
18623;SDS011;9441;51.420;7.036;2022-12-18T03:50:32;10.02;;;5.47;;
18623;SDS011;9441;51.420;7.036;2022-12-18T03:51:40;10.63;;;5.50;;
18623;SDS011;9441;51.420;7.036;2022-12-18T03:52:49;11.20;;;5.47;;
18623;SDS011;9441;51.420;7.036;2022-12-18T03:53:57;10.00;;;5.40;;
18623;SDS011;9441;51.420;7.036;2022-12-18T03:55:05;9.70;;;5.07;;
18623;SDS011;9441;51.420;7.036;2022-12-18T03:56:10;12.52;;;5.57;;
18623;SDS011;9441;51.420;7.036;2022-12-18T03:57:18;11.35;;;5.50;;
18623;SDS011;9441;51.420;7.036;2022-12-18T03:58:24;13.57;;;5.50;;
18623;SDS011;9441;51.420;7.036;2022-12-18T03:59:35;10.80;;;5.18;;
18623;SDS011;9441;51.420;7.036;2022-12-18T04:00:41;7.40;;;4.80;;
18623;SDS011;9441;51.420;7.036;2022-12-18T04:01:45;10.23;;;5.07;;
18623;SDS011;9441;51.420;7.036;2022-12-18T04:02:51;9.88;;;5.13;;
18623;SDS011;9441;51.420;7.036;2022-12-18T04:03:59;10.30;;;5.25;;
18623;SDS011;9441;51.420;7.036;2022-12-18T04:05:06;9.98;;;4.97;;
18623;SDS011;9441;51.420;7.036;2022-12-18T04:06:12;10.32;;;5.15;;
18623;SDS011;9441;51.420;7.036;2022-12-18T04:07:16;12.05;;;6.68;;
18623;SDS011;9441;51.420;7.036;2022-12-18T04:08:18;11.02;;;5.22;;
18623;SDS011;9441;51.420;7.036;2022-12-18T04:09:30;8.20;;;5.22;;
18623;SDS011;9441;51.420;7.036;2022-12-18T04:10:33;11.35;;;5.45;;
18623;SDS011;9441;51.420;7.036;2022-12-18T04:11:38;11.88;;;5.88;;
18623;SDS011;9441;51.420;7.036;2022-12-18T04:12:40;9.45;;;5.22;;
18623;SDS011;9441;51.420;7.036;2022-12-18T04:13:45;14.35;;;5.60;;
18623;SDS011;9441;51.420;7.036;2022-12-18T04:14:55;10.15;;;5.38;;
18623;SDS011;9441;51.420;7.036;2022-12-18T04:15:58;10.45;;;4.82;;
18623;SDS011;9441;51.420;7.036;2022-12-18T04:16:59;10.30;;;5.35;;
18623;SDS011;9441;51.420;7.036;2022-12-18T04:18:04;9.45;;;4.75;;
18623;SDS011;9441;51.420;7.036;2022-12-18T04:19:13;12.65;;;5.50;;
18623;SDS011;9441;51.420;7.036;2022-12-18T04:20:17;10.00;;;5.07;;
18623;SDS011;9441;51.420;7.036;2022-12-18T04:21:19;9.70;;;4.97;;
18623;SDS011;9441;51.420;7.036;2022-12-18T04:22:23;11.20;;;5.38;;
18623;SDS011;9441;51.420;7.036;2022-12-18T04:23:29;13.07;;;5.60;;
18623;SDS011;9441;51.420;7.036;2022-12-18T04:24:33;8.50;;;4.90;;
18623;SDS011;9441;51.420;7.036;2022-12-18T04:25:41;10.13;;;4.90;;
18623;SDS011;9441;51.420;7.036;2022-12-18T04:26:46;11.65;;;5.57;;
18623;SDS011;9441;51.420;7.036;2022-12-18T04:27:52;10.20;;;5.03;;
18623;SDS011;9441;51.420;7.036;2022-12-18T04:28:54;9.57;;;5.20;;
18623;SDS011;9441;51.420;7.036;2022-12-18T04:29:57;10.27;;;5.38;;
18623;SDS011;9441;51.420;7.036;2022-12-18T04:30:59;11.18;;;5.18;;
18623;SDS011;9441;51.420;7.036;2022-12-18T04:32:00;10.07;;;5.60;;
18623;SDS011;9441;51.420;7.036;2022-12-18T04:33:07;9.38;;;5.38;;
18623;SDS011;9441;51.420;7.036;2022-12-18T04:34:09;9.38;;;5.03;;
18623;SDS011;9441;51.420;7.036;2022-12-18T04:35:17;8.90;;;4.82;;
18623;SDS011;9441;51.420;7.036;2022-12-18T04:36:19;11.18;;;5.00;;
18623;SDS011;9441;51.420;7.036;2022-12-18T04:37:21;9.35;;;4.82;;
18623;SDS011;9441;51.420;7.036;2022-12-18T04:38:23;11.30;;;5.13;;
18623;SDS011;9441;51.420;7.036;2022-12-18T04:39:34;9.15;;;5.03;;
18623;SDS011;9441;51.420;7.036;2022-12-18T04:40:41;11.23;;;5.47;;
18623;SDS011;9441;51.420;7.036;2022-12-18T04:41:51;10.07;;;5.30;;
18623;SDS011;9441;51.420;7.036;2022-12-18T04:42:52;9.98;;;5.28;;
18623;SDS011;9441;51.420;7.036;2022-12-18T04:43:54;8.30;;;5.15;;
18623;SDS011;9441;51.420;7.036;2022-12-18T04:44:56;13.30;;;7.00;;
18623;SDS011;9441;51.420;7.036;2022-12-18T04:46:02;13.95;;;6.82;;
18623;SDS011;9441;51.420;7.036;2022-12-18T04:47:03;11.98;;;6.15;;
18623;SDS011;9441;51.420;7.036;2022-12-18T04:48:06;11.63;;;6.30;;
18623;SDS011;9441;51.420;7.036;2022-12-18T04:49:07;12.48;;;6.15;;
18623;SDS011;9441;51.420;7.036;2022-12-18T04:50:10;10.73;;;5.47;;
18623;SDS011;9441;51.420;7.036;2022-12-18T04:51:11;12.63;;;5.93;;
18623;SDS011;9441;51.420;7.036;2022-12-18T04:52:13;11.52;;;6.00;;
18623;SDS011;9441;51.420;7.036;2022-12-18T04:53:14;10.32;;;5.20;;
18623;SDS011;9441;51.420;7.036;2022-12-18T04:54:16;12.55;;;5.22;;
18623;SDS011;9441;51.420;7.036;2022-12-18T04:55:20;10.48;;;5.07;;
18623;SDS011;9441;51.420;7.036;2022-12-18T04:56:26;10.05;;;4.90;;
18623;SDS011;9441;51.420;7.036;2022-12-18T04:57:27;10.63;;;5.20;;
18623;SDS011;9441;51.420;7.036;2022-12-18T04:58:29;11.93;;;5.32;;
18623;SDS011;9441;51.420;7.036;2022-12-18T04:59:30;8.35;;;4.82;;
18623;SDS011;9441;51.420;7.036;2022-12-18T05:00:34;9.75;;;5.03;;
18623;SDS011;9441;51.420;7.036;2022-12-18T05:01:35;11.10;;;5.28;;
18623;SDS011;9441;51.420;7.036;2022-12-18T05:02:37;10.52;;;5.22;;
18623;SDS011;9441;51.420;7.036;2022-12-18T05:03:38;10.55;;;5.05;;
18623;SDS011;9441;51.420;7.036;2022-12-18T05:04:40;11.70;;;5.00;;
18623;SDS011;9441;51.420;7.036;2022-12-18T05:05:41;10.13;;;4.95;;
18623;SDS011;9441;51.420;7.036;2022-12-18T05:06:43;10.05;;;5.45;;
18623;SDS011;9441;51.420;7.036;2022-12-18T05:07:44;10.25;;;4.45;;
18623;SDS011;9441;51.420;7.036;2022-12-18T05:08:46;8.85;;;4.90;;
18623;SDS011;9441;51.420;7.036;2022-12-18T05:09:47;10.37;;;4.73;;
18623;SDS011;9441;51.420;7.036;2022-12-18T05:10:49;9.90;;;5.28;;
18623;SDS011;9441;51.420;7.036;2022-12-18T05:11:58;13.02;;;5.18;;
18623;SDS011;9441;51.420;7.036;2022-12-18T05:13:00;9.90;;;5.22;;
18623;SDS011;9441;51.420;7.036;2022-12-18T05:14:01;9.23;;;4.75;;
18623;SDS011;9441;51.420;7.036;2022-12-18T05:15:03;10.10;;;4.85;;
18623;SDS011;9441;51.420;7.036;2022-12-18T05:16:07;10.20;;;4.93;;
18623;SDS011;9441;51.420;7.036;2022-12-18T05:17:09;9.55;;;5.00;;
18623;SDS011;9441;51.420;7.036;2022-12-18T05:18:10;9.23;;;4.90;;
18623;SDS011;9441;51.420;7.036;2022-12-18T05:19:12;11.15;;;5.60;;
18623;SDS011;9441;51.420;7.036;2022-12-18T05:20:13;10.82;;;5.10;;
18623;SDS011;9441;51.420;7.036;2022-12-18T05:21:15;8.27;;;4.47;;
18623;SDS011;9441;51.420;7.036;2022-12-18T05:22:16;8.27;;;4.90;;
18623;SDS011;9441;51.420;7.036;2022-12-18T05:23:18;8.35;;;4.80;;
18623;SDS011;9441;51.420;7.036;2022-12-18T05:24:20;8.55;;;4.68;;
18623;SDS011;9441;51.420;7.036;2022-12-18T05:25:23;9.68;;;4.93;;
18623;SDS011;9441;51.420;7.036;2022-12-18T05:26:24;8.70;;;4.60;;
18623;SDS011;9441;51.420;7.036;2022-12-18T05:27:26;9.90;;;4.32;;
18623;SDS011;9441;51.420;7.036;2022-12-18T05:28:28;10.88;;;4.65;;
18623;SDS011;9441;51.420;7.036;2022-12-18T05:29:32;7.88;;;4.43;;
18623;SDS011;9441;51.420;7.036;2022-12-18T05:30:33;11.38;;;4.57;;
18623;SDS011;9441;51.420;7.036;2022-12-18T05:31:37;7.70;;;3.97;;
18623;SDS011;9441;51.420;7.036;2022-12-18T05:32:38;7.75;;;4.40;;
18623;SDS011;9441;51.420;7.036;2022-12-18T05:33:41;9.25;;;4.40;;
18623;SDS011;9441;51.420;7.036;2022-12-18T05:34:42;9.80;;;4.47;;
18623;SDS011;9441;51.420;7.036;2022-12-18T05:35:44;8.65;;;4.22;;
18623;SDS011;9441;51.420;7.036;2022-12-18T05:36:50;9.52;;;4.57;;
18623;SDS011;9441;51.420;7.036;2022-12-18T05:37:52;9.18;;;4.47;;
18623;SDS011;9441;51.420;7.036;2022-12-18T05:38:53;9.02;;;4.45;;
18623;SDS011;9441;51.420;7.036;2022-12-18T05:39:55;10.15;;;4.50;;
18623;SDS011;9441;51.420;7.036;2022-12-18T05:40:56;8.25;;;4.13;;
18623;SDS011;9441;51.420;7.036;2022-12-18T05:41:59;11.68;;;4.85;;
18623;SDS011;9441;51.420;7.036;2022-12-18T05:43:00;8.02;;;4.30;;
18623;SDS011;9441;51.420;7.036;2022-12-18T05:44:09;7.93;;;4.15;;
18623;SDS011;9441;51.420;7.036;2022-12-18T05:45:11;10.10;;;4.57;;
18623;SDS011;9441;51.420;7.036;2022-12-18T05:46:13;8.57;;;4.40;;
18623;SDS011;9441;51.420;7.036;2022-12-18T05:47:19;7.72;;;4.05;;
18623;SDS011;9441;51.420;7.036;2022-12-18T05:48:20;9.93;;;4.57;;
18623;SDS011;9441;51.420;7.036;2022-12-18T05:49:22;10.18;;;4.82;;
18623;SDS011;9441;51.420;7.036;2022-12-18T05:50:23;8.45;;;4.70;;
18623;SDS011;9441;51.420;7.036;2022-12-18T05:51:25;8.77;;;4.47;;
18623;SDS011;9441;51.420;7.036;2022-12-18T05:52:27;10.75;;;4.65;;
18623;SDS011;9441;51.420;7.036;2022-12-18T05:53:29;9.73;;;4.50;;
18623;SDS011;9441;51.420;7.036;2022-12-18T05:54:30;6.13;;;3.83;;
18623;SDS011;9441;51.420;7.036;2022-12-18T05:55:32;10.07;;;4.60;;
18623;SDS011;9441;51.420;7.036;2022-12-18T05:56:33;8.40;;;4.20;;
18623;SDS011;9441;51.420;7.036;2022-12-18T05:57:35;8.57;;;4.00;;
18623;SDS011;9441;51.420;7.036;2022-12-18T05:58:37;6.60;;;3.90;;
18623;SDS011;9441;51.420;7.036;2022-12-18T05:59:39;11.65;;;4.60;;
18623;SDS011;9441;51.420;7.036;2022-12-18T06:00:41;8.23;;;4.53;;
18623;SDS011;9441;51.420;7.036;2022-12-18T06:01:45;7.07;;;4.28;;
18623;SDS011;9441;51.420;7.036;2022-12-18T06:02:47;9.05;;;4.55;;
18623;SDS011;9441;51.420;7.036;2022-12-18T06:03:49;8.32;;;4.03;;
18623;SDS011;9441;51.420;7.036;2022-12-18T06:04:51;8.23;;;4.05;;
18623;SDS011;9441;51.420;7.036;2022-12-18T06:05:53;7.22;;;4.18;;
18623;SDS011;9441;51.420;7.036;2022-12-18T06:06:54;7.93;;;4.10;;
18623;SDS011;9441;51.420;7.036;2022-12-18T06:07:56;9.07;;;4.00;;
18623;SDS011;9441;51.420;7.036;2022-12-18T06:08:57;7.70;;;3.97;;
18623;SDS011;9441;51.420;7.036;2022-12-18T06:09:59;8.35;;;3.92;;
18623;SDS011;9441;51.420;7.036;2022-12-18T06:11:00;8.60;;;3.90;;
18623;SDS011;9441;51.420;7.036;2022-12-18T06:12:02;7.65;;;3.90;;
18623;SDS011;9441;51.420;7.036;2022-12-18T06:13:04;7.93;;;3.80;;
18623;SDS011;9441;51.420;7.036;2022-12-18T06:14:08;6.18;;;3.53;;
18623;SDS011;9441;51.420;7.036;2022-12-18T06:15:10;9.98;;;4.20;;
18623;SDS011;9441;51.420;7.036;2022-12-18T06:16:12;8.32;;;4.28;;
18623;SDS011;9441;51.420;7.036;2022-12-18T06:17:13;6.88;;;4.10;;
18623;SDS011;9441;51.420;7.036;2022-12-18T06:18:16;6.45;;;3.78;;
18623;SDS011;9441;51.420;7.036;2022-12-18T06:19:17;11.55;;;4.53;;
18623;SDS011;9441;51.420;7.036;2022-12-18T06:20:19;7.95;;;4.05;;
18623;SDS011;9441;51.420;7.036;2022-12-18T06:21:21;6.40;;;3.65;;
18623;SDS011;9441;51.420;7.036;2022-12-18T06:22:23;7.50;;;3.90;;
18623;SDS011;9441;51.420;7.036;2022-12-18T06:23:24;6.97;;;3.65;;
18623;SDS011;9441;51.420;7.036;2022-12-18T06:24:27;6.75;;;4.05;;
18623;SDS011;9441;51.420;7.036;2022-12-18T06:25:28;8.90;;;3.95;;
18623;SDS011;9441;51.420;7.036;2022-12-18T06:26:30;7.03;;;3.47;;
18623;SDS011;9441;51.420;7.036;2022-12-18T06:27:31;8.48;;;3.75;;
18623;SDS011;9441;51.420;7.036;2022-12-18T06:28:33;7.50;;;3.90;;
18623;SDS011;9441;51.420;7.036;2022-12-18T06:29:34;7.63;;;3.78;;
18623;SDS011;9441;51.420;7.036;2022-12-18T06:30:36;7.90;;;3.88;;